Keweenaw Bay, Michigan
Current Conditions -  °F | °C
As of 8:17 AM on Thursday 30 Oct 2014 (Local Time) from KCMX Reporting Station
Light Rain Light Rain  
Wind Chill: 33°   Ceiling: 800
Heat Index: 38°   Visibility: 7mi
Dew Point: 35°   Wind: 6mph
Humidity: 89%   Direction: 260°W
Pressure: 30.01"   Gusts: NA
Location:  46.811°N, 88.5098°W
Report Text: KCMX 301217Z AUTO 26005KT 7SM -RA BKN008 OVC013 03/02 A3001 RMK AO2 P0000 T00330017
Loading
Personal Weather Stations






























Interactive Weather Map
Tropical Storm Tracking
New forecast layout! Learn more

10-Day Weather Forecast

Advertisements
Track Severe Weather on mobile